createdAt,value
2022-11-20T00:01:33.121Z,85.83
2022-11-20T00:04:01.433Z,85.95
2022-11-20T00:06:29.865Z,86.45
2022-11-20T00:09:00.890Z,86.40
2022-11-20T00:11:30.504Z,86.62
2022-11-20T00:14:01.670Z,86.98
2022-11-20T00:16:32.746Z,86.78
2022-11-20T00:19:00.175Z,86.54
2022-11-20T00:21:29.480Z,86.81
2022-11-20T00:23:58.139Z,86.70
2022-11-20T00:26:28.104Z,86.71
2022-11-20T00:28:59.755Z,86.54
2022-11-20T00:31:28.467Z,87.01
2022-11-20T00:33:56.065Z,86.94
2022-11-20T00:36:27.704Z,86.93
2022-11-20T00:38:58.496Z,86.56
2022-11-20T00:41:30.040Z,86.44
2022-11-20T00:43:58.088Z,86.73
2022-11-20T00:46:28.610Z,87.31
2022-11-20T00:48:56.311Z,86.94
2022-11-20T00:51:26.364Z,86.78
2022-11-20T00:53:57.495Z,86.73
2022-11-20T00:56:24.886Z,86.46
2022-11-20T00:58:52.327Z,86.75
2022-11-20T01:01:26.283Z,86.88
2022-11-20T01:03:58.677Z,87.32
2022-11-20T01:06:28.955Z,86.89
2022-11-20T01:08:59.947Z,86.70
2022-11-20T01:11:31.914Z,86.90
2022-11-20T01:14:02.853Z,87.32
2022-11-20T01:16:34.945Z,86.90
2022-11-20T01:19:05.242Z,87.00
2022-11-20T01:21:39.989Z,86.89
2022-11-20T01:24:11.566Z,87.54
2022-11-20T01:26:41.794Z,87.40
2022-11-20T01:29:25.479Z,87.23
2022-11-20T01:31:53.981Z,87.40
2022-11-20T01:34:23.731Z,87.07
2022-11-20T01:36:53.791Z,87.26
2022-11-20T01:39:25.320Z,87.23
2022-11-20T01:42:13.909Z,87.37
2022-11-20T01:44:57.578Z,87.76
2022-11-20T01:47:31.154Z,87.44
2022-11-20T01:50:12.675Z,87.57
2022-11-20T01:52:57.245Z,87.46
2022-11-20T01:55:37.338Z,87.97
2022-11-20T01:58:06.927Z,87.59
2022-11-20T02:00:34.329Z,87.35
2022-11-20T02:03:09.488Z,87.64
2022-11-20T02:05:43.818Z,87.94
2022-11-20T02:08:11.751Z,87.37
2022-11-20T02:10:39.363Z,87.67
2022-11-20T02:13:25.797Z,88.14
2022-11-20T02:15:53.609Z,88.00
2022-11-20T02:18:24.104Z,87.83
2022-11-20T02:21:14.094Z,87.60
2022-11-20T02:23:59.449Z,87.51
2022-11-20T02:26:32.013Z,87.56
2022-11-20T02:29:02.883Z,87.49
2022-11-20T02:31:36.369Z,87.40
2022-11-20T02:34:03.783Z,87.32
2022-11-20T02:36:36.370Z,87.56
2022-11-20T02:39:05.430Z,87.63
2022-11-20T02:41:38.471Z,87.31
2022-11-20T02:44:06.884Z,87.64
2022-11-20T02:46:35.285Z,87.89
2022-11-20T02:49:05.464Z,87.64
2022-11-20T02:51:33.711Z,88.34
2022-11-20T02:54:01.105Z,87.86
2022-11-20T02:56:28.628Z,88.17
2022-11-20T02:58:56.554Z,88.73
2022-11-20T03:01:24.085Z,88.27
2022-11-20T03:03:51.563Z,88.11
2022-11-20T03:06:18.915Z,88.21
2022-11-20T03:08:46.279Z,88.06
2022-11-20T03:11:13.694Z,88.30
2022-11-20T03:13:41.206Z,88.47
2022-11-20T03:16:13.141Z,88.71
2022-11-20T03:18:42.600Z,88.75
2022-11-20T03:21:13.013Z,88.31
2022-11-20T03:23:41.271Z,88.76
2022-11-20T03:26:29.453Z,88.89
2022-11-20T03:28:59.911Z,88.20
2022-11-20T03:31:34.319Z,88.55
2022-11-20T03:34:03.788Z,88.77
2022-11-20T03:36:31.873Z,88.73
2022-11-20T03:38:59.704Z,88.86
2022-11-20T03:41:31.330Z,88.80
2022-11-20T03:44:05.502Z,88.94
2022-11-20T03:46:33.397Z,88.33
2022-11-20T03:49:00.959Z,88.93
2022-11-20T03:51:35.490Z,88.75
2022-11-20T03:54:07.644Z,88.88
2022-11-20T03:56:38.562Z,88.36
2022-11-20T03:59:07.087Z,88.40
2022-11-20T04:01:43.166Z,88.58
2022-11-20T04:04:14.203Z,88.57
2022-11-20T04:06:41.851Z,89.04
2022-11-20T04:09:09.186Z,88.96
2022-11-20T04:11:40.637Z,89.00
2022-11-20T04:14:15.539Z,88.99
2022-11-20T04:16:43.873Z,89.57
2022-11-20T04:19:14.756Z,89.25
2022-11-20T04:21:44.672Z,89.43
2022-11-20T04:24:12.313Z,89.92
2022-11-20T04:26:40.651Z,89.57
2022-11-20T04:29:11.330Z,89.78
2022-11-20T04:31:38.720Z,89.91
2022-11-20T04:34:08.037Z,89.81
2022-11-20T04:36:36.002Z,89.82
2022-11-20T04:39:07.399Z,89.70
2022-11-20T04:41:37.525Z,89.82
2022-11-20T04:44:07.244Z,89.85
2022-11-20T04:46:41.852Z,90.15
2022-11-20T04:49:14.130Z,89.83
2022-11-20T04:51:41.640Z,89.91
2022-11-20T04:54:12.057Z,89.83
2022-11-20T04:56:39.472Z,90.32
2022-11-20T04:59:08.377Z,89.49
2022-11-20T05:01:35.822Z,88.80
2022-11-20T05:04:03.243Z,88.72
2022-11-20T05:06:30.648Z,89.32
2022-11-20T05:08:58.598Z,90.01
2022-11-20T05:11:26.186Z,90.14
2022-11-20T05:13:53.545Z,89.86
2022-11-20T05:16:25.534Z,89.82
2022-11-20T05:18:55.180Z,89.33
2022-11-20T05:21:23.511Z,89.62
2022-11-20T05:23:50.899Z,89.25
2022-11-20T05:26:22.529Z,89.62
2022-11-20T05:28:51.476Z,89.73
2022-11-20T05:31:27.206Z,89.90
2022-11-20T05:33:58.098Z,89.96
2022-11-20T05:36:25.621Z,89.87
2022-11-20T05:38:56.708Z,89.38
2022-11-20T05:41:27.292Z,89.40
2022-11-20T05:43:54.643Z,89.87
2022-11-20T05:46:28.726Z,89.68
2022-11-20T05:48:58.126Z,89.97
2022-11-20T05:51:27.955Z,89.65
2022-11-20T05:53:58.467Z,89.55
2022-11-20T05:56:25.897Z,89.79
2022-11-20T05:58:53.385Z,89.96
2022-11-20T06:01:26.302Z,89.56
2022-11-20T06:03:55.086Z,89.90
2022-11-20T06:06:23.308Z,89.56
2022-11-20T06:08:50.806Z,90.26
2022-11-20T06:11:18.338Z,89.91
2022-11-20T06:13:46.893Z,89.72
2022-11-20T06:16:18.083Z,89.95
2022-11-20T06:18:46.584Z,89.45
2022-11-20T06:21:20.677Z,89.85
2022-11-20T06:23:50.201Z,89.32
2022-11-20T06:26:24.107Z,89.60
2022-11-20T06:28:52.980Z,89.20
2022-11-20T06:31:23.894Z,89.40
2022-11-20T06:33:52.692Z,89.37
2022-11-20T06:36:23.306Z,90.21
2022-11-20T06:38:51.682Z,89.89
2022-11-20T06:41:23.594Z,89.87
2022-11-20T06:43:51.215Z,89.85
2022-11-20T06:46:20.667Z,90.06
2022-11-20T06:48:49.527Z,89.60
2022-11-20T06:51:17.582Z,89.37
2022-11-20T06:53:44.980Z,89.61
2022-11-20T06:56:12.370Z,89.48
2022-11-20T06:58:39.828Z,90.10
2022-11-20T07:01:11.239Z,89.95
2022-11-20T07:03:41.176Z,89.37
2022-11-20T07:06:09.752Z,89.62
2022-11-20T07:08:37.477Z,89.32
2022-11-20T07:11:07.791Z,90.06
2022-11-20T07:13:35.408Z,90.28
2022-11-20T07:16:08.907Z,89.88
2022-11-20T07:18:37.163Z,89.98
2022-11-20T07:21:08.032Z,89.75
2022-11-20T07:23:36.015Z,89.88
2022-11-20T07:26:09.022Z,90.05
2022-11-20T07:28:37.262Z,90.30
2022-11-20T07:31:05.847Z,89.92
2022-11-20T07:33:33.596Z,90.04
2022-11-20T07:36:01.521Z,89.61
2022-11-20T07:38:29.584Z,89.38
2022-11-20T07:41:02.342Z,89.65
2022-11-20T07:43:30.030Z,89.85
2022-11-20T07:45:59.668Z,90.41
2022-11-20T07:48:29.202Z,90.17
2022-11-20T07:50:57.783Z,90.40
2022-11-20T07:53:25.623Z,90.35
2022-11-20T07:55:53.457Z,90.87
2022-11-20T07:58:22.168Z,90.03
2022-11-20T08:00:49.806Z,90.07
2022-11-20T08:03:23.153Z,90.43
2022-11-20T08:05:52.537Z,90.39
2022-11-20T08:08:20.453Z,90.36
2022-11-20T08:10:47.791Z,90.21
2022-11-20T08:13:33.858Z,89.95
2022-11-20T08:16:01.218Z,90.46
2022-11-20T08:18:31.871Z,90.16
2022-11-20T08:21:05.439Z,90.31
2022-11-20T08:23:32.839Z,90.71
2022-11-20T08:26:00.253Z,90.49
2022-11-20T08:28:27.671Z,90.30
2022-11-20T08:31:01.573Z,90.39
2022-11-20T08:33:29.244Z,90.68
2022-11-20T08:36:05.342Z,90.84
2022-11-20T08:38:33.587Z,91.10
2022-11-20T08:41:22.478Z,91.18
2022-11-20T08:43:51.482Z,91.39
2022-11-20T08:46:19.390Z,91.76
2022-11-20T08:48:46.810Z,91.53
2022-11-20T08:51:14.756Z,91.41
2022-11-20T08:53:42.718Z,91.79
2022-11-20T08:56:10.719Z,91.61
2022-11-20T08:59:02.050Z,91.74
2022-11-20T09:01:28.392Z,91.49
2022-11-20T09:04:00.514Z,92.20
2022-11-20T09:06:28.179Z,92.02
2022-11-20T09:08:55.905Z,92.12
2022-11-20T09:11:23.784Z,92.32
2022-11-20T09:13:51.581Z,92.26
2022-11-20T09:16:19.026Z,92.57
2022-11-20T09:18:46.571Z,92.71
2022-11-20T09:21:15.180Z,92.75
2022-11-20T09:23:42.666Z,92.69
2022-11-20T09:26:14.737Z,92.28
2022-11-20T09:28:42.317Z,92.32
2022-11-20T09:31:23.828Z,92.39
2022-11-20T09:33:51.311Z,92.51
2022-11-20T09:36:19.587Z,92.73
2022-11-20T09:38:48.187Z,93.02
2022-11-20T09:41:49.053Z,92.77
2022-11-20T09:44:55.265Z,93.25
2022-11-20T09:48:19.303Z,92.96
2022-11-20T09:51:23.086Z,93.27
2022-11-20T09:54:06.599Z,92.74
2022-11-20T09:56:41.736Z,92.69
2022-11-20T09:59:29.560Z,92.63
2022-11-20T10:01:59.358Z,92.49
2022-11-20T10:04:29.318Z,93.04
2022-11-20T10:07:32.908Z,93.13
2022-11-20T10:10:01.257Z,92.55
2022-11-20T10:13:03.064Z,92.53
2022-11-20T10:15:46.409Z,92.57
2022-11-20T10:18:24.428Z,92.84
2022-11-20T10:21:14.178Z,93.02
2022-11-20T10:24:24.940Z,93.22
2022-11-20T10:27:43.620Z,92.78
2022-11-20T10:30:18.707Z,92.65
2022-11-20T10:32:57.004Z,93.16
2022-11-20T10:35:44.028Z,92.75
2022-11-20T10:38:25.763Z,92.42
2022-11-20T10:41:20.128Z,92.64
2022-11-20T10:43:51.647Z,93.00
2022-11-20T10:46:25.131Z,92.94
2022-11-20T10:48:52.726Z,92.93
2022-11-20T10:51:41.013Z,92.91
2022-11-20T10:54:47.218Z,93.12
2022-11-20T10:57:37.944Z,93.07
2022-11-20T11:00:10.711Z,92.78
2022-11-20T11:02:54.035Z,93.60
2022-11-20T11:05:21.391Z,93.34
2022-11-20T11:07:56.620Z,93.08
2022-11-20T11:10:37.055Z,93.23
2022-11-20T11:13:04.467Z,93.50
2022-11-20T11:15:41.288Z,93.86
2022-11-20T11:18:12.501Z,93.88
2022-11-20T11:20:39.882Z,93.93
2022-11-20T11:23:29.596Z,93.62
2022-11-20T11:26:00.314Z,93.52
2022-11-20T11:28:30.742Z,93.72
2022-11-20T11:30:58.307Z,93.77
2022-11-20T11:33:29.551Z,94.05
2022-11-20T11:36:02.557Z,93.83
2022-11-20T11:38:41.654Z,93.88
2022-11-20T11:41:19.700Z,93.84
2022-11-20T11:44:35.014Z,94.01
2022-11-20T11:47:07.224Z,93.61
2022-11-20T11:49:34.616Z,94.00
2022-11-20T11:52:20.437Z,93.76
2022-11-20T11:55:11.367Z,93.50
2022-11-20T11:57:55.427Z,93.93
2022-11-20T12:00:25.729Z,93.89
2022-11-20T12:03:23.764Z,94.50
2022-11-20T12:06:21.212Z,94.58
2022-11-20T12:09:20.540Z,94.49
2022-11-20T12:12:09.742Z,94.43
2022-11-20T12:14:58.180Z,95.01
2022-11-20T12:17:37.735Z,94.87
2022-11-20T12:20:22.708Z,95.17
2022-11-20T12:23:36.098Z,95.41
2022-11-20T12:26:46.759Z,95.45
2022-11-20T12:29:51.572Z,95.75
2022-11-20T12:33:06.461Z,95.50
2022-11-20T12:36:28.239Z,95.75
2022-11-20T12:39:26.032Z,95.79
2022-11-20T12:42:28.666Z,95.77
2022-11-20T12:45:47.350Z,96.22
2022-11-20T12:48:50.924Z,96.24
2022-11-20T12:52:08.847Z,96.11
2022-11-20T12:55:29.002Z,96.50
2022-11-20T12:59:02.471Z,96.56
2022-11-20T13:02:33.238Z,96.79
2022-11-20T13:06:45.578Z,96.63
2022-11-20T13:14:16.035Z,97.29
2022-11-20T13:18:24.192Z,97.25
2022-11-20T13:25:27.651Z,97.43
2022-11-20T13:28:17.611Z,97.15
2022-11-20T13:31:12.222Z,97.38
2022-11-20T13:34:26.981Z,97.72
2022-11-20T13:37:31.673Z,97.79
2022-11-20T13:40:31.870Z,97.74
2022-11-20T13:44:06.460Z,97.79
2022-11-20T13:47:03.193Z,97.94
2022-11-20T13:50:12.056Z,98.24
2022-11-20T13:53:38.324Z,98.20
2022-11-20T13:56:47.453Z,98.36
2022-11-20T13:59:39.604Z,98.53
2022-11-20T14:02:18.723Z,99.04
2022-11-20T14:04:50.991Z,98.45
2022-11-20T14:07:24.734Z,99.06
2022-11-20T14:09:56.704Z,98.79
2022-11-20T14:12:34.533Z,99.58
2022-11-20T14:15:02.410Z,99.35
2022-11-20T14:17:29.636Z,99.15
2022-11-20T14:20:05.990Z,99.65
2022-11-20T14:22:33.631Z,99.79
2022-11-20T14:25:12.845Z,99.37
2022-11-20T14:27:44.925Z,99.67
2022-11-20T14:30:20.234Z,100.00
2022-11-20T14:32:49.212Z,100.00
2022-11-20T14:35:30.255Z,100.00
2022-11-20T14:37:58.565Z,100.00
2022-11-20T14:40:37.485Z,100.00
2022-11-20T14:43:26.610Z,100.00
2022-11-20T14:46:00.693Z,100.00
2022-11-20T14:48:39.100Z,100.00
2022-11-20T14:51:06.621Z,100.00
2022-11-20T14:53:33.978Z,100.00
2022-11-20T14:56:03.273Z,100.00
2022-11-20T14:58:34.558Z,100.00
2022-11-20T15:01:06.682Z,100.00
2022-11-20T15:03:41.019Z,100.00
2022-11-20T15:06:13.053Z,100.00
2022-11-20T15:08:52.625Z,100.00
2022-11-20T15:11:29.222Z,100.00
2022-11-20T15:13:57.842Z,100.00
2022-11-20T15:16:27.718Z,100.00
2022-11-20T15:18:56.119Z,100.00
2022-11-20T15:21:24.234Z,100.00
2022-11-20T15:23:51.830Z,100.00
2022-11-20T15:26:27.652Z,100.00
2022-11-20T15:28:55.084Z,100.00
2022-11-20T15:31:24.749Z,100.00
2022-11-20T15:33:52.475Z,100.00
2022-11-20T15:36:19.847Z,100.00
2022-11-20T15:38:47.280Z,100.00
2022-11-20T15:41:14.722Z,100.00
2022-11-20T15:43:42.059Z,100.00
2022-11-20T15:46:14.633Z,100.00
2022-11-20T15:48:53.882Z,100.00
2022-11-20T15:51:31.448Z,100.00
2022-11-20T15:53:59.356Z,100.00
2022-11-20T15:56:27.520Z,100.00
2022-11-20T15:58:54.953Z,100.00
2022-11-20T16:01:23.202Z,100.00
2022-11-20T16:03:50.636Z,100.00
2022-11-20T16:06:18.182Z,100.00
2022-11-20T16:08:45.738Z,100.00
2022-11-20T16:11:16.491Z,100.00
2022-11-20T16:14:03.497Z,100.00
2022-11-20T16:16:38.617Z,100.00
2022-11-20T16:19:06.194Z,100.00
2022-11-20T16:21:33.670Z,100.00
2022-11-20T16:24:05.079Z,100.00
2022-11-20T16:26:34.523Z,100.00
2022-11-20T16:29:04.508Z,100.00
2022-11-20T16:31:33.047Z,100.00
2022-11-20T16:34:11.458Z,100.00
2022-11-20T16:36:45.754Z,100.00
2022-11-20T16:39:13.387Z,100.00
2022-11-20T16:41:40.796Z,100.00
2022-11-20T16:44:11.498Z,100.00
2022-11-20T16:46:40.857Z,100.00
2022-11-20T16:49:14.275Z,100.00
2022-11-20T16:51:42.706Z,100.00
2022-11-20T16:54:13.948Z,100.00
2022-11-20T16:56:43.911Z,100.00
2022-11-20T16:59:12.431Z,100.00
2022-11-20T17:01:41.724Z,100.00
2022-11-20T17:04:09.424Z,100.00
2022-11-20T17:06:41.365Z,100.00
2022-11-20T17:09:09.545Z,100.00
2022-11-20T17:11:37.742Z,100.00
2022-11-20T17:14:08.845Z,100.00
2022-11-20T17:16:37.566Z,100.00
2022-11-20T17:19:05.342Z,100.00
2022-11-20T17:21:39.330Z,100.00
2022-11-20T17:24:10.658Z,100.00
2022-11-20T17:26:41.425Z,100.00
2022-11-20T17:29:18.578Z,100.00
2022-11-20T17:31:46.405Z,100.00
2022-11-20T17:34:15.754Z,100.00
2022-11-20T17:36:47.436Z,100.00
2022-11-20T17:39:16.424Z,100.00
2022-11-20T17:41:44.175Z,100.00
2022-11-20T17:44:13.285Z,100.00
2022-11-20T17:46:41.073Z,100.00
2022-11-20T17:49:08.736Z,100.00
2022-11-20T17:51:36.107Z,100.00
2022-11-20T17:54:07.646Z,100.00
2022-11-20T17:56:54.712Z,100.00
2022-11-20T17:59:23.770Z,100.00
2022-11-20T18:01:51.212Z,100.00
2022-11-20T18:04:18.851Z,100.00
2022-11-20T18:06:46.247Z,100.00
2022-11-20T18:09:13.656Z,100.00
2022-11-20T18:11:43.172Z,100.00
2022-11-20T18:14:26.500Z,100.00
2022-11-20T18:16:57.820Z,100.00
2022-11-20T18:19:32.499Z,100.00
2022-11-20T18:22:04.067Z,100.00
2022-11-20T18:24:32.918Z,100.00
2022-11-20T18:27:00.370Z,100.00
2022-11-20T18:29:28.801Z,100.00
2022-11-20T18:31:56.303Z,100.00
2022-11-20T18:34:24.336Z,100.00
2022-11-20T18:36:52.630Z,100.00
2022-11-20T18:39:19.985Z,100.00
2022-11-20T18:42:06.319Z,100.00
2022-11-20T18:44:52.654Z,100.00
2022-11-20T18:47:27.811Z,100.00
2022-11-20T18:49:58.325Z,100.00
2022-11-20T18:52:29.893Z,100.00
2022-11-20T18:54:57.477Z,100.00
2022-11-20T18:57:27.575Z,100.00
2022-11-20T19:00:02.160Z,100.00
2022-11-20T19:02:40.567Z,100.00
2022-11-20T19:05:14.025Z,100.00
2022-11-20T19:07:42.316Z,100.00
2022-11-20T19:10:10.240Z,100.00
2022-11-20T19:12:37.660Z,100.00
2022-11-20T19:15:05.754Z,100.00
2022-11-20T19:17:34.222Z,100.00
2022-11-20T19:20:01.633Z,100.00
2022-11-20T19:22:29.091Z,100.00
2022-11-20T19:24:56.482Z,100.00
2022-11-20T19:27:24.081Z,100.00
2022-11-20T19:29:51.582Z,100.00
2022-11-20T19:32:19.146Z,100.00
2022-11-20T19:34:46.499Z,100.00
2022-11-20T19:37:13.884Z,100.00
2022-11-20T19:39:41.558Z,100.00
2022-11-20T19:42:08.921Z,100.00
2022-11-20T19:44:36.313Z,100.00
2022-11-20T19:47:09.040Z,100.00
2022-11-20T19:49:41.649Z,100.00
2022-11-20T19:52:09.298Z,100.00
2022-11-20T19:54:36.936Z,100.00
2022-11-20T19:57:04.463Z,100.00
2022-11-20T19:59:31.884Z,100.00
2022-11-20T20:01:59.290Z,100.00
2022-11-20T20:04:27.238Z,100.00
2022-11-20T20:06:54.746Z,100.00
2022-11-20T20:09:23.757Z,100.00
2022-11-20T20:11:51.302Z,100.00
2022-11-20T20:14:19.384Z,100.00
2022-11-20T20:16:46.821Z,100.00
2022-11-20T20:19:15.952Z,100.00
2022-11-20T20:21:44.317Z,100.00
2022-11-20T20:24:12.425Z,100.00
2022-11-20T20:26:40.793Z,100.00
2022-11-20T20:29:08.534Z,100.00
2022-11-20T20:31:35.986Z,100.00
2022-11-20T20:34:05.243Z,100.00
2022-11-20T20:36:33.012Z,100.00
2022-11-20T20:39:02.421Z,100.00
2022-11-20T20:41:30.659Z,100.00
2022-11-20T20:44:16.476Z,100.00
2022-11-20T20:46:43.902Z,100.00
2022-11-20T20:49:12.626Z,100.00
2022-11-20T20:51:40.032Z,100.00
2022-11-20T20:54:07.451Z,100.00
2022-11-20T20:56:34.852Z,100.00
2022-11-20T20:59:03.794Z,100.00
2022-11-20T21:01:31.254Z,100.00
2022-11-20T21:03:58.739Z,100.00
2022-11-20T21:06:26.701Z,100.00
2022-11-20T21:08:55.868Z,100.00
2022-11-20T21:11:23.242Z,100.00
2022-11-20T21:13:50.751Z,100.00
2022-11-20T21:16:24.958Z,100.00
2022-11-20T21:18:52.372Z,100.00
2022-11-20T21:21:38.382Z,100.00
2022-11-20T21:24:06.429Z,100.00
2022-11-20T21:26:33.790Z,100.00
2022-11-20T21:29:01.265Z,100.00
2022-11-20T21:31:30.046Z,100.00
2022-11-20T21:33:58.549Z,100.00
2022-11-20T21:36:29.537Z,100.00
2022-11-20T21:38:59.416Z,100.00
2022-11-20T21:41:32.594Z,100.00
2022-11-20T21:46:52.547Z,100.00
2022-11-20T21:49:19.937Z,100.00
2022-11-20T21:51:47.341Z,100.00
2022-11-20T21:54:14.812Z,100.00
2022-11-20T21:56:42.209Z,100.00
2022-11-20T21:59:13.576Z,100.00
2022-11-20T22:01:41.495Z,100.00
2022-11-20T22:04:14.934Z,100.00
2022-11-20T22:06:42.326Z,100.00
2022-11-20T22:09:10.998Z,100.00
2022-11-20T22:11:38.373Z,100.00
2022-11-20T22:14:21.398Z,100.00
2022-11-20T22:16:52.301Z,100.00
2022-11-20T22:19:21.706Z,100.00
2022-11-20T22:21:50.713Z,100.00
2022-11-20T22:24:21.367Z,100.00
2022-11-20T22:26:49.283Z,100.00
2022-11-20T22:29:21.224Z,100.00
2022-11-20T22:31:51.931Z,100.00
2022-11-20T22:34:20.403Z,100.00
2022-11-20T22:36:47.843Z,100.00
2022-11-20T22:39:15.303Z,100.00
2022-11-20T22:41:42.752Z,100.00
2022-11-20T22:44:14.449Z,100.00
2022-11-20T22:46:41.714Z,100.00
2022-11-20T22:49:09.498Z,100.00
2022-11-20T22:51:40.194Z,100.00
2022-11-20T22:54:11.073Z,100.00
2022-11-20T22:56:38.518Z,100.00
2022-11-20T22:59:06.033Z,100.00
2022-11-20T23:01:39.139Z,100.00
2022-11-20T23:04:10.225Z,100.00
2022-11-20T23:06:38.110Z,100.00
2022-11-20T23:09:07.360Z,100.00
2022-11-20T23:11:35.890Z,100.00
2022-11-20T23:14:13.377Z,100.00
2022-11-20T23:16:42.209Z,100.00
2022-11-20T23:19:14.413Z,100.00
2022-11-20T23:21:42.907Z,100.00
2022-11-20T23:24:11.339Z,100.00
2022-11-20T23:26:40.778Z,100.00
2022-11-20T23:29:08.313Z,100.00
2022-11-20T23:31:36.142Z,100.00
2022-11-20T23:34:04.459Z,100.00
2022-11-20T23:36:31.975Z,100.00
2022-11-20T23:38:59.381Z,100.00
2022-11-20T23:41:26.789Z,100.00
2022-11-20T23:43:54.986Z,100.00
2022-11-20T23:46:22.460Z,100.00
2022-11-20T23:48:49.915Z,100.00
2022-11-20T23:51:17.976Z,100.00
2022-11-20T23:53:45.678Z,100.00
2022-11-20T23:56:14.546Z,100.00
2022-11-20T23:58:43.000Z,100.00
